Terminal Aerodrome Forecast
Issued by NWS

Home | Current Version | Previous Version | Text Only | Print | Product List | Glossary On
Versions: 1 2 3 4 5 6 7 8 9 10 11 12 13 14 15 16
000
FTUS44 KLIX 261100
TAFMCB
TAF
KMCB 261132Z 2612/2712 00000KT P6SM SKC
     FM261600 22010KT P6SM SKC
     FM270000 25008KT P6SM SKC
     FM270500 32006KT P6SM SKC=

USA.gov is the U.S. government's official web portal to all federal, state and local government web resources and services.